createdAt,value
2018-10-19T00:00:18.190Z,14.10
2018-10-19T00:02:46.590Z,14.10
2018-10-19T00:05:15.000Z,14.10
2018-10-19T00:07:43.339Z,14.10
2018-10-19T00:10:12.733Z,14.10
2018-10-19T00:12:41.106Z,14.20
2018-10-19T00:15:09.595Z,14.20
2018-10-19T00:17:37.971Z,14.20
2018-10-19T00:20:07.005Z,14.20
2018-10-19T00:22:35.506Z,14.20
2018-10-19T00:25:04.103Z,14.10
2018-10-19T00:27:32.519Z,14.10
2018-10-19T00:30:00.928Z,14.10
2018-10-19T00:32:29.371Z,14.10
2018-10-19T00:34:57.785Z,14.10
2018-10-19T00:37:26.198Z,14.00
2018-10-19T00:39:54.581Z,14.00
2018-10-19T00:42:23.021Z,14.00
2018-10-19T00:44:51.432Z,13.90
2018-10-19T00:47:19.961Z,13.90
2018-10-19T00:49:48.389Z,14.00
2018-10-19T00:52:16.783Z,14.10
2018-10-19T00:54:45.208Z,14.00
2018-10-19T00:57:13.660Z,14.00
2018-10-19T00:59:42.265Z,14.00
2018-10-19T01:02:10.654Z,14.00
2018-10-19T01:04:39.045Z,13.90
2018-10-19T01:07:07.432Z,13.80
2018-10-19T01:09:35.864Z,13.80
2018-10-19T01:12:04.237Z,13.90
2018-10-19T01:14:32.719Z,13.90
2018-10-19T01:17:01.169Z,13.90
2018-10-19T01:19:29.589Z,13.80
2018-10-19T01:21:57.966Z,13.70
2018-10-19T01:24:26.399Z,13.70
2018-10-19T01:26:54.859Z,13.60
2018-10-19T01:29:23.276Z,13.60
2018-10-19T01:31:51.696Z,13.50
2018-10-19T01:34:20.090Z,13.50
2018-10-19T01:36:48.469Z,13.60
2018-10-19T01:39:16.874Z,13.60
2018-10-19T01:41:45.257Z,13.50
2018-10-19T01:44:13.661Z,13.50
2018-10-19T01:46:49.135Z,13.60
2018-10-19T01:49:18.602Z,13.50
2018-10-19T01:51:47.029Z,13.40
2018-10-19T01:54:15.447Z,13.40
2018-10-19T01:56:43.944Z,13.50
2018-10-19T01:59:12.386Z,13.50
2018-10-19T02:01:40.809Z,13.60
2018-10-19T02:04:09.231Z,13.60
2018-10-19T02:06:37.617Z,13.60
2018-10-19T02:09:07.536Z,13.40
2018-10-19T02:11:36.055Z,13.30
2018-10-19T02:14:04.582Z,13.50
2018-10-19T02:16:33.014Z,13.40
2018-10-19T02:19:01.439Z,13.40
2018-10-19T02:21:29.853Z,13.50
2018-10-19T02:23:58.274Z,13.50
2018-10-19T02:26:26.671Z,13.50
2018-10-19T02:28:55.154Z,13.50
2018-10-19T02:31:23.527Z,13.60
2018-10-19T02:33:51.956Z,13.60
2018-10-19T02:36:20.375Z,13.60
2018-10-19T02:38:48.819Z,13.60
2018-10-19T02:41:17.302Z,13.60
2018-10-19T02:43:45.771Z,13.60
2018-10-19T02:46:14.199Z,13.50
2018-10-19T02:48:42.608Z,13.40
2018-10-19T02:51:11.081Z,13.40
2018-10-19T02:53:39.438Z,13.30
2018-10-19T02:56:07.850Z,13.30
2018-10-19T02:58:36.243Z,13.20
2018-10-19T03:01:04.722Z,13.30
2018-10-19T03:03:33.135Z,13.30
2018-10-19T03:06:01.682Z,13.30
2018-10-19T03:08:30.076Z,13.30
2018-10-19T03:10:58.508Z,13.30
2018-10-19T03:13:26.912Z,13.30
2018-10-19T03:15:55.350Z,13.30
2018-10-19T03:18:23.750Z,13.30
2018-10-19T03:20:52.178Z,13.40
2018-10-19T03:23:20.578Z,13.50
2018-10-19T03:25:49.011Z,13.50
2018-10-19T03:28:17.460Z,13.50
2018-10-19T03:30:45.899Z,13.60
2018-10-19T03:33:14.373Z,13.60
2018-10-19T03:35:42.738Z,13.60
2018-10-19T03:38:11.158Z,13.60
2018-10-19T03:40:39.580Z,13.70
2018-10-19T03:43:08.024Z,13.70
2018-10-19T03:45:36.521Z,13.70
2018-10-19T03:48:05.234Z,13.70
2018-10-19T03:50:33.727Z,13.80
2018-10-19T03:53:02.210Z,13.70
2018-10-19T03:55:30.571Z,13.70
2018-10-19T03:57:58.974Z,13.70
2018-10-19T04:00:27.466Z,13.80
2018-10-19T04:02:56.343Z,13.70
2018-10-19T04:05:25.523Z,13.70
2018-10-19T04:07:54.011Z,13.70
2018-10-19T04:10:22.795Z,13.60
2018-10-19T04:12:51.340Z,13.70
2018-10-19T04:15:19.868Z,13.70
2018-10-19T04:17:48.237Z,13.70
2018-10-19T04:20:16.655Z,13.70
2018-10-19T04:22:45.047Z,13.70
2018-10-19T04:25:13.478Z,13.70
2018-10-19T04:27:41.914Z,13.60
2018-10-19T04:30:10.346Z,13.60
2018-10-19T04:32:38.749Z,13.50
2018-10-19T04:35:07.279Z,13.60
2018-10-19T04:37:35.768Z,13.60
2018-10-19T04:40:04.334Z,13.60
2018-10-19T04:42:32.728Z,13.60
2018-10-19T04:45:01.171Z,13.60
2018-10-19T04:47:29.635Z,13.60
2018-10-19T04:49:58.022Z,13.60
2018-10-19T04:52:26.430Z,13.60
2018-10-19T04:54:54.854Z,13.60
2018-10-19T04:57:25.326Z,13.60
2018-10-19T04:59:53.808Z,13.50
2018-10-19T05:02:22.275Z,13.50
2018-10-19T05:04:50.805Z,13.40
2018-10-19T05:07:19.143Z,13.50
2018-10-19T05:09:47.583Z,13.50
2018-10-19T05:12:15.978Z,13.50
2018-10-19T05:14:44.420Z,13.60
2018-10-19T05:17:12.805Z,13.50
2018-10-19T05:19:41.142Z,13.30
2018-10-19T05:22:09.495Z,13.40
2018-10-19T05:24:37.964Z,13.50
2018-10-19T05:27:06.293Z,13.50
2018-10-19T05:29:34.675Z,13.40
2018-10-19T05:32:03.115Z,13.40
2018-10-19T05:34:31.439Z,13.40
2018-10-19T05:36:59.778Z,13.30
2018-10-19T05:39:28.178Z,13.30
2018-10-19T05:41:56.531Z,13.30
2018-10-19T05:44:24.903Z,13.20
2018-10-19T05:46:53.273Z,13.20
2018-10-19T05:49:21.662Z,13.10
2018-10-19T05:51:50.035Z,13.10
2018-10-19T05:54:18.374Z,13.20
2018-10-19T05:56:46.747Z,13.20
2018-10-19T05:59:15.097Z,13.10
2018-10-19T06:01:43.524Z,13.10
2018-10-19T06:04:11.871Z,13.20
2018-10-19T06:06:40.250Z,13.20
2018-10-19T06:09:09.851Z,13.10
2018-10-19T06:11:56.516Z,13.20
2018-10-19T06:14:24.958Z,13.10
2018-10-19T06:16:53.540Z,13.20
2018-10-19T06:19:21.921Z,13.20
2018-10-19T06:21:51.863Z,13.10
2018-10-19T06:24:20.723Z,13.10
2018-10-19T06:26:49.306Z,13.20
2018-10-19T06:29:17.890Z,13.10
2018-10-19T06:31:46.337Z,13.10
2018-10-19T06:34:14.702Z,13.20
2018-10-19T06:36:43.562Z,13.30
2018-10-19T06:39:12.529Z,13.10
2018-10-19T06:41:41.143Z,13.20
2018-10-19T06:44:09.535Z,13.30
2018-10-19T06:46:37.975Z,13.30
2018-10-19T06:49:06.644Z,13.40
2018-10-19T06:51:35.305Z,13.40
2018-10-19T06:54:03.891Z,13.50
2018-10-19T06:56:32.319Z,13.60
2018-10-19T07:02:06.025Z,13.70
2018-10-19T07:04:34.495Z,13.80
2018-10-19T07:07:03.579Z,13.70
2018-10-19T07:09:32.271Z,13.80
2018-10-19T07:12:00.915Z,13.90
2018-10-19T07:14:29.343Z,13.90
2018-10-19T07:16:57.892Z,14.00
2018-10-19T07:19:26.299Z,14.00
2018-10-19T07:21:54.762Z,14.00
2018-10-19T07:24:23.108Z,14.10
2018-10-19T07:26:51.546Z,14.20
2018-10-19T07:29:20.028Z,14.20
2018-10-19T07:31:48.711Z,14.40
2018-10-19T07:34:17.071Z,14.50
2018-10-19T07:36:45.613Z,14.60
2018-10-19T07:39:14.037Z,14.70
2018-10-19T07:41:42.586Z,14.80
2018-10-19T07:44:11.113Z,14.90
2018-10-19T07:46:39.519Z,15.10
2018-10-19T07:49:07.934Z,15.00
2018-10-19T07:51:36.396Z,15.00
2018-10-19T07:54:04.905Z,15.10
2018-10-19T07:56:33.286Z,15.30
2018-10-19T07:59:01.842Z,15.50
2018-10-19T08:01:30.219Z,15.70
2018-10-19T08:03:58.623Z,16.00
2018-10-19T08:06:27.028Z,16.20
2018-10-19T08:08:55.433Z,16.40
2018-10-19T08:11:23.888Z,16.20
2018-10-19T08:13:52.210Z,16.20
2018-10-19T08:16:20.622Z,16.20
2018-10-19T08:18:49.014Z,16.20
2018-10-19T08:21:17.524Z,16.20
2018-10-19T08:23:45.991Z,16.30
2018-10-19T08:26:14.437Z,16.30
2018-10-19T08:28:43.082Z,16.20
2018-10-19T08:31:11.656Z,16.50
2018-10-19T08:33:40.302Z,16.70
2018-10-19T08:36:08.675Z,16.70
2018-10-19T08:38:37.056Z,16.70
2018-10-19T08:41:05.607Z,16.90
2018-10-19T08:43:33.958Z,17.10
2018-10-19T08:46:38.360Z,17.20
2018-10-19T08:49:08.424Z,17.20
2018-10-19T08:51:36.769Z,17.60
2018-10-19T08:54:05.363Z,17.80
2018-10-19T08:56:33.754Z,18.10
2018-10-19T08:59:02.205Z,18.30
2018-10-19T09:01:30.533Z,18.60
2018-10-19T09:03:58.918Z,18.90
2018-10-19T09:06:27.290Z,19.20
2018-10-19T09:08:55.703Z,19.40
2018-10-19T09:11:24.262Z,19.70
2018-10-19T09:13:52.538Z,19.80
2018-10-19T09:16:20.971Z,19.90
2018-10-19T09:18:49.364Z,20.00
2018-10-19T09:21:17.891Z,20.30
2018-10-19T09:23:46.875Z,20.50
2018-10-19T09:26:15.276Z,20.70
2018-10-19T09:28:43.680Z,21.00
2018-10-19T09:31:14.682Z,21.10
2018-10-19T09:33:43.055Z,21.20
2018-10-19T09:36:11.568Z,21.10
2018-10-19T09:38:39.879Z,21.10
2018-10-19T09:41:08.347Z,21.00
2018-10-19T09:43:36.934Z,21.40
2018-10-19T09:46:05.434Z,21.40
2018-10-19T09:48:33.955Z,21.50
2018-10-19T09:51:02.468Z,21.40
2018-10-19T09:53:30.899Z,21.10
2018-10-19T09:55:59.309Z,20.90
2018-10-19T09:58:27.711Z,21.10
2018-10-19T10:00:57.428Z,21.40
2018-10-19T10:03:26.312Z,21.70
2018-10-19T10:05:54.816Z,21.90
2018-10-19T10:11:01.480Z,21.30
2018-10-19T10:13:29.855Z,21.40
2018-10-19T10:15:58.207Z,21.10
2018-10-19T10:18:26.579Z,21.30
2018-10-19T10:20:54.942Z,21.30
2018-10-19T10:23:23.319Z,21.50
2018-10-19T10:25:51.686Z,21.50
2018-10-19T10:28:20.074Z,21.60
2018-10-19T10:30:48.462Z,21.40
2018-10-19T10:33:16.843Z,21.40
2018-10-19T10:35:45.231Z,21.80
2018-10-19T10:38:13.626Z,21.60
2018-10-19T10:40:45.979Z,21.60
2018-10-19T10:43:14.511Z,21.50
2018-10-19T10:45:43.058Z,21.20
2018-10-19T10:48:11.874Z,21.50
2018-10-19T10:50:41.132Z,21.60
2018-10-19T10:55:55.799Z,21.20
2018-10-19T10:58:24.178Z,21.40
2018-10-19T11:00:52.564Z,21.50
2018-10-19T11:03:20.965Z,21.50
2018-10-19T11:05:49.379Z,21.20
2018-10-19T11:08:17.995Z,21.20
2018-10-19T11:13:29.250Z,21.20
2018-10-19T11:15:59.005Z,21.20
2018-10-19T11:18:28.959Z,21.10
2018-10-19T11:20:59.898Z,21.10
2018-10-19T11:23:28.606Z,21.10
2018-10-19T11:25:57.271Z,21.10
2018-10-19T11:28:26.066Z,20.80
2018-10-19T11:30:54.482Z,20.90
2018-10-19T11:33:22.832Z,21.00
2018-10-19T11:35:52.320Z,21.10
2018-10-19T11:38:20.777Z,21.00
2018-10-19T11:46:33.178Z,21.10
2018-10-19T11:49:01.708Z,21.10
2018-10-19T11:51:31.044Z,21.10
2018-10-19T12:09:00.344Z,20.80
2018-10-19T12:14:25.038Z,20.60
2018-10-19T12:18:04.914Z,20.50
2018-10-19T12:20:54.744Z,20.50
2018-10-19T12:23:23.071Z,20.40
2018-10-19T12:29:07.882Z,20.30
2018-10-19T12:31:51.591Z,20.30
2018-10-19T12:34:22.395Z,20.10
2018-10-19T12:41:10.843Z,20.00
2018-10-19T12:43:47.308Z,20.20
2018-10-19T12:46:28.794Z,20.00
2018-10-19T12:49:02.013Z,20.10
2018-10-19T12:51:47.764Z,20.10
2018-10-19T12:54:16.552Z,20.10
2018-10-19T12:56:45.008Z,20.20
2018-10-19T13:01:58.041Z,20.20
2018-10-19T13:08:41.220Z,20.40
2018-10-19T13:11:11.115Z,20.20
2018-10-19T13:19:37.707Z,20.30
2018-10-19T13:22:06.170Z,20.20
2018-10-19T13:24:34.637Z,20.20
2018-10-19T13:27:03.156Z,20.20
2018-10-19T13:29:31.614Z,20.20
2018-10-19T13:32:00.098Z,19.90
2018-10-19T13:34:28.611Z,19.90
2018-10-19T13:36:57.389Z,19.80
2018-10-19T13:39:26.211Z,19.90
2018-10-19T13:41:59.248Z,19.90
2018-10-19T13:44:28.704Z,19.90
2018-10-19T13:46:59.005Z,20.00
2018-10-19T13:49:27.374Z,20.00
2018-10-19T13:51:57.360Z,20.00
2018-10-19T13:54:30.683Z,19.90
2018-10-19T13:57:07.375Z,20.00
2018-10-19T13:59:58.158Z,19.90
2018-10-19T14:08:37.359Z,20.00
2018-10-19T14:11:05.902Z,20.10
2018-10-19T14:13:35.179Z,20.10
2018-10-19T14:19:18.514Z,19.90
2018-10-19T14:21:56.586Z,19.80
2018-10-19T14:27:12.359Z,19.70
2018-10-19T14:29:41.844Z,19.50
2018-10-19T14:32:19.273Z,19.50
2018-10-19T14:34:47.715Z,19.60
2018-10-19T14:37:19.128Z,19.60
2018-10-19T14:39:47.544Z,19.60
2018-10-19T14:42:16.086Z,19.60
2018-10-19T14:44:44.542Z,19.60
2018-10-19T14:47:13.053Z,19.60
2018-10-19T14:49:41.611Z,19.60
2018-10-19T14:52:10.027Z,19.60
2018-10-19T14:54:38.475Z,19.60
2018-10-19T14:57:07.002Z,19.60
2018-10-19T14:59:35.398Z,19.60
2018-10-19T15:02:03.890Z,19.40
2018-10-19T15:04:32.350Z,19.40
2018-10-19T15:07:01.047Z,19.40
2018-10-19T15:09:29.499Z,19.40
2018-10-19T15:11:57.935Z,19.40
2018-10-19T15:14:26.358Z,19.30
2018-10-19T15:16:55.042Z,19.30
2018-10-19T15:19:23.469Z,19.20
2018-10-19T15:21:52.012Z,19.20
2018-10-19T15:24:20.833Z,19.30
2018-10-19T15:26:49.346Z,19.20
2018-10-19T15:29:22.651Z,19.10
2018-10-19T15:31:52.571Z,19.00
2018-10-19T15:34:21.066Z,18.90
2018-10-19T15:36:50.476Z,18.90
2018-10-19T15:39:20.415Z,18.90
2018-10-19T15:41:49.080Z,18.90
2018-10-19T15:44:17.889Z,18.80
2018-10-19T15:46:46.356Z,18.80
2018-10-19T15:49:14.815Z,18.80
2018-10-19T15:51:43.242Z,18.70
2018-10-19T15:54:11.709Z,18.70
2018-10-19T15:56:40.081Z,18.70
2018-10-19T15:59:08.606Z,18.70
2018-10-19T16:01:37.159Z,18.70
2018-10-19T16:04:05.747Z,18.60
2018-10-19T16:06:34.074Z,18.60
2018-10-19T16:09:02.619Z,18.60
2018-10-19T16:11:30.924Z,18.60
2018-10-19T16:13:59.319Z,18.60
2018-10-19T16:16:27.686Z,18.50
2018-10-19T16:18:56.085Z,18.50
2018-10-19T16:21:24.426Z,18.40
2018-10-19T16:23:52.805Z,18.40
2018-10-19T16:26:21.215Z,18.40
2018-10-19T16:28:49.622Z,18.40
2018-10-19T16:31:18.367Z,18.30
2018-10-19T16:33:47.303Z,18.30
2018-10-19T16:36:15.897Z,18.20
2018-10-19T16:38:44.362Z,18.20
2018-10-19T16:41:12.902Z,18.20
2018-10-19T16:43:41.414Z,18.20
2018-10-19T16:46:10.067Z,18.20
2018-10-19T16:48:38.527Z,18.20
2018-10-19T16:51:07.156Z,18.10
2018-10-19T16:53:35.716Z,18.00
2018-10-19T16:56:04.094Z,18.10
2018-10-19T16:58:33.509Z,17.90
2018-10-19T17:01:02.287Z,18.00
2018-10-19T17:03:30.794Z,17.90
2018-10-19T17:05:59.145Z,17.90
2018-10-19T17:08:27.765Z,17.80
2018-10-19T17:10:56.276Z,17.70
2018-10-19T17:13:25.735Z,17.70
2018-10-19T17:15:54.378Z,17.70
2018-10-19T17:18:22.811Z,17.70
2018-10-19T17:20:51.307Z,17.60
2018-10-19T17:23:19.751Z,17.60
2018-10-19T17:25:48.182Z,17.60
2018-10-19T17:28:16.675Z,17.60
2018-10-19T17:30:45.186Z,17.50
2018-10-19T17:33:13.741Z,17.60
2018-10-19T17:35:42.279Z,17.60
2018-10-19T17:38:10.730Z,17.60
2018-10-19T17:40:39.176Z,17.60
2018-10-19T17:43:07.648Z,17.50
2018-10-19T17:45:36.196Z,17.20
2018-10-19T17:48:04.744Z,17.30
2018-10-19T17:50:33.191Z,17.30
2018-10-19T17:53:01.672Z,17.20
2018-10-19T17:55:30.127Z,17.20
2018-10-19T17:57:58.569Z,17.10
2018-10-19T18:00:26.956Z,16.90
2018-10-19T18:02:55.375Z,17.10
2018-10-19T18:05:23.789Z,17.10
2018-10-19T18:07:52.170Z,17.10
2018-10-19T18:10:20.580Z,17.20
2018-10-19T18:12:48.914Z,17.20
2018-10-19T18:15:17.284Z,17.10
2018-10-19T18:17:45.682Z,16.90
2018-10-19T18:20:14.058Z,16.80
2018-10-19T18:22:42.540Z,16.80
2018-10-19T18:25:10.868Z,17.00
2018-10-19T18:27:39.225Z,16.80
2018-10-19T18:30:07.994Z,16.60
2018-10-19T18:32:37.198Z,16.60
2018-10-19T18:35:07.036Z,16.50
2018-10-19T18:37:35.354Z,16.60
2018-10-19T18:40:03.864Z,16.70
2018-10-19T18:42:32.205Z,16.80
2018-10-19T18:45:00.627Z,16.80
2018-10-19T18:47:28.987Z,16.70
2018-10-19T18:49:57.461Z,16.70
2018-10-19T18:52:25.827Z,16.60
2018-10-19T18:54:54.287Z,16.60
2018-10-19T18:57:22.729Z,16.40
2018-10-19T18:59:51.126Z,16.40
2018-10-19T19:02:19.476Z,16.50
2018-10-19T19:04:47.948Z,16.60
2018-10-19T19:07:16.384Z,16.50
2018-10-19T19:09:48.902Z,16.50
2018-10-19T19:12:17.355Z,16.50
2018-10-19T19:14:45.846Z,16.50
2018-10-19T19:17:14.367Z,16.50
2018-10-19T19:19:42.731Z,16.30
2018-10-19T19:22:11.118Z,16.30
2018-10-19T19:24:44.738Z,16.20
2018-10-19T19:27:13.198Z,16.20
2018-10-19T19:29:41.542Z,16.10
2018-10-19T19:32:10.038Z,16.10
2018-10-19T19:34:38.363Z,16.20
2018-10-19T19:37:06.772Z,16.20
2018-10-19T19:39:35.124Z,16.20
2018-10-19T19:42:08.738Z,16.20
2018-10-19T19:44:37.212Z,16.30
2018-10-19T19:47:06.011Z,16.30
2018-10-19T19:49:37.086Z,16.40
2018-10-19T19:52:05.646Z,16.40
2018-10-19T19:54:34.088Z,16.40
2018-10-19T19:57:02.587Z,16.40
2018-10-19T19:59:30.960Z,16.30
2018-10-19T20:01:59.386Z,16.30
2018-10-19T20:04:27.735Z,16.40
2018-10-19T20:06:56.126Z,16.40
2018-10-19T20:09:24.462Z,16.40
2018-10-19T20:11:52.946Z,16.40
2018-10-19T20:14:21.332Z,16.50
2018-10-19T20:16:49.695Z,16.50
2018-10-19T20:19:18.046Z,16.50
2018-10-19T20:21:46.394Z,16.50
2018-10-19T20:24:14.925Z,16.50
2018-10-19T20:26:43.270Z,16.50
2018-10-19T20:29:11.689Z,16.60
2018-10-19T20:31:39.982Z,16.60
2018-10-19T20:34:08.395Z,16.50
2018-10-19T20:36:36.802Z,16.50
2018-10-19T20:39:07.635Z,16.50
2018-10-19T20:41:36.040Z,16.40
2018-10-19T20:44:04.506Z,16.40
2018-10-19T20:46:32.935Z,16.50
2018-10-19T20:49:01.382Z,16.50
2018-10-19T20:51:29.782Z,16.50
2018-10-19T20:53:58.225Z,16.50
2018-10-19T20:56:26.622Z,16.50
2018-10-19T20:58:55.155Z,16.50
2018-10-19T21:01:23.686Z,16.50
2018-10-19T21:03:52.160Z,16.40
2018-10-19T21:06:20.690Z,16.40
2018-10-19T21:08:49.325Z,16.40
2018-10-19T21:11:17.796Z,16.30
2018-10-19T21:13:46.170Z,16.30
2018-10-19T21:16:14.550Z,16.40
2018-10-19T21:18:42.954Z,16.30
2018-10-19T21:21:11.329Z,16.10
2018-10-19T21:23:39.795Z,16.00
2018-10-19T21:26:08.246Z,16.00
2018-10-19T21:28:36.604Z,16.20
2018-10-19T21:31:05.386Z,16.20
2018-10-19T21:33:33.826Z,16.30
2018-10-19T21:36:02.237Z,16.20
2018-10-19T21:38:30.648Z,16.00
2018-10-19T21:40:59.089Z,15.90
2018-10-19T21:43:27.475Z,15.90
2018-10-19T21:45:55.850Z,15.70
2018-10-19T21:48:24.323Z,15.60
2018-10-19T21:50:52.708Z,15.50
2018-10-19T21:53:21.122Z,15.40
2018-10-19T21:55:49.514Z,15.60
2018-10-19T21:58:17.909Z,15.70
2018-10-19T22:00:46.298Z,15.60
2018-10-19T22:03:14.695Z,15.60
2018-10-19T22:05:43.074Z,15.80
2018-10-19T22:08:11.535Z,15.80
2018-10-19T22:10:39.919Z,15.80
2018-10-19T22:13:08.370Z,15.70
2018-10-19T22:15:36.734Z,15.60
2018-10-19T22:18:05.322Z,15.40
2018-10-19T22:20:33.702Z,15.30
2018-10-19T22:23:02.116Z,15.10
2018-10-19T22:25:30.423Z,15.10
2018-10-19T22:27:58.774Z,15.00
2018-10-19T22:30:27.109Z,14.90
2018-10-19T22:32:55.466Z,15.00
2018-10-19T22:35:23.790Z,15.00
2018-10-19T22:37:52.135Z,14.90
2018-10-19T22:40:20.478Z,14.90
2018-10-19T22:42:48.800Z,14.90
2018-10-19T22:45:17.157Z,14.80
2018-10-19T22:47:45.510Z,15.00
2018-10-19T22:50:13.893Z,15.20
2018-10-19T22:52:42.223Z,15.20
2018-10-19T22:55:10.656Z,15.20
2018-10-19T22:57:38.921Z,15.20
2018-10-19T23:00:07.610Z,15.10
2018-10-19T23:02:36.071Z,15.00
2018-10-19T23:05:04.856Z,15.20
2018-10-19T23:07:33.182Z,15.20
2018-10-19T23:10:01.567Z,15.10
2018-10-19T23:12:29.953Z,15.00
2018-10-19T23:14:58.350Z,15.00
2018-10-19T23:17:26.688Z,14.90
2018-10-19T23:19:55.066Z,14.90
2018-10-19T23:22:23.398Z,14.90
2018-10-19T23:24:51.845Z,14.80
2018-10-19T23:27:20.186Z,14.80
2018-10-19T23:29:48.538Z,14.80
2018-10-19T23:32:16.880Z,14.70
2018-10-19T23:34:45.289Z,14.50
2018-10-19T23:37:13.754Z,14.50
2018-10-19T23:39:42.007Z,14.50
2018-10-19T23:42:10.338Z,14.60
2018-10-19T23:44:39.798Z,14.80
2018-10-19T23:47:08.160Z,14.70
2018-10-19T23:49:36.502Z,14.60
2018-10-19T23:52:05.094Z,14.40
2018-10-19T23:54:33.457Z,14.40
2018-10-19T23:57:01.821Z,14.40
2018-10-19T23:59:30.180Z,14.30
